Time;durP1;ratioP1;P1;durP2;ratioP2;P2;SDS_P1;SDS_P2;PMS_P1;PMS_P2;Temp;Humidity;BMP_temperature;BMP_pressure;BME280_temperature;BME280_humidity;BME280_pressure;Samples;Min_cycle;Max_cycle;Signal;HPM_P1;HPM_P2
2023/04/16 00:00:09;;;;;;;133.57;50.97;;;8.60;99.90;;;;;;5094392;28;20035;-67
2023/04/16 00:02:34;;;;;;;129.40;51.42;;;8.60;99.90;;;;;;5093886;28;20064;-68
2023/04/16 00:05:00;;;;;;;134.65;52.97;;;8.60;99.90;;;;;;5094582;28;20028;-67
2023/04/16 00:07:25;;;;;;;150.15;55.47;;;8.60;99.90;;;;;;5093980;28;20025;-67
2023/04/16 00:09:51;;;;;;;139.55;52.72;;;8.60;99.90;;;;;;5093853;28;20024;-67
2023/04/16 00:12:16;;;;;;;135.52;53.05;;;8.60;99.90;;;;;;5093527;28;20389;-67
2023/04/16 00:14:42;;;;;;;138.88;53.20;;;8.60;99.90;;;;;;5093496;28;20044;-67
2023/04/16 00:17:08;;;;;;;138.05;52.10;;;8.60;99.90;;;;;;5093882;28;20028;-67
2023/04/16 00:19:35;;;;;;;136.57;54.15;;;8.60;99.90;;;;;;5093918;28;20121;-67
2023/04/16 00:22:00;;;;;;;144.00;55.35;;;8.60;99.90;;;;;;5094296;28;20028;-68
2023/04/16 00:24:26;;;;;;;133.27;52.85;;;8.60;99.90;;;;;;5094247;28;20023;-67
2023/04/16 00:26:51;;;;;;;141.77;53.85;;;8.60;99.90;;;;;;5093455;28;20024;-67
2023/04/16 00:29:17;;;;;;;136.73;53.22;;;8.60;99.90;;;;;;5094001;28;20040;-67
2023/04/16 00:31:42;;;;;;;137.13;53.10;;;8.60;99.90;;;;;;5093650;28;20028;-67
2023/04/16 00:34:08;;;;;;;146.27;54.30;;;8.60;99.90;;;;;;5094011;28;20025;-67
2023/04/16 00:36:33;;;;;;;140.05;54.38;;;8.60;99.90;;;;;;5093679;28;20043;-67
2023/04/16 00:38:59;;;;;;;150.88;55.20;;;8.60;99.90;;;;;;5093943;28;20373;-67
2023/04/16 00:41:25;;;;;;;165.13;57.05;;;8.60;99.90;;;;;;5094194;28;20028;-68
2023/04/16 00:43:51;;;;;;;153.43;54.45;;;8.60;99.90;;;;;;5094141;28;20023;-67
2023/04/16 00:46:18;;;;;;;150.77;54.78;;;8.60;99.90;;;;;;5093738;28;20028;-67
2023/04/16 00:48:44;;;;;;;143.80;52.72;;;8.60;99.90;;;;;;5093784;28;20029;-67
2023/04/16 00:51:10;;;;;;;153.82;53.70;;;8.60;99.90;;;;;;5093997;28;20031;-68
2023/04/16 00:53:36;;;;;;;144.95;54.40;;;8.60;99.90;;;;;;5093764;28;20032;-67
2023/04/16 00:56:04;;;;;;;147.35;53.42;;;8.60;99.90;;;;;;5093854;28;20384;-67
2023/04/16 00:58:30;;;;;;;143.50;52.97;;;8.60;99.90;;;;;;5093494;28;20020;-67
2023/04/16 01:00:56;;;;;;;156.50;54.58;;;8.60;99.90;;;;;;5094028;28;20114;-67
2023/04/16 01:03:22;;;;;;;148.07;53.25;;;8.60;99.90;;;;;;5093290;28;20035;-67
2023/04/16 01:05:49;;;;;;;141.75;53.00;;;8.60;99.90;;;;;;5093595;28;20110;-67
2023/04/16 01:08:17;;;;;;;125.70;51.58;;;8.60;99.90;;;;;;5093026;28;20024;-67
2023/04/16 01:10:42;;;;;;;132.65;52.22;;;8.60;99.90;;;;;;5092970;28;20036;-67
2023/04/16 01:13:08;;;;;;;145.05;51.17;;;8.60;99.90;;;;;;5093614;28;20081;-67
2023/04/16 01:15:34;;;;;;;142.63;54.20;;;8.60;99.90;;;;;;5093012;28;20094;-68
2023/04/16 01:17:59;;;;;;;131.18;52.90;;;8.60;99.90;;;;;;5093262;28;20020;-68
2023/04/16 01:20:25;;;;;;;130.35;51.97;;;8.60;99.90;;;;;;5093692;28;20073;-67
2023/04/16 01:22:50;;;;;;;142.63;51.95;;;8.60;99.90;;;;;;5094351;28;20473;-67
2023/04/16 01:25:16;;;;;;;141.80;54.63;;;8.60;99.90;;;;;;5097419;28;20032;-68
2023/04/16 01:27:42;;;;;;;145.95;54.75;;;8.60;99.90;;;;;;5096894;28;20036;-67
2023/04/16 01:30:08;;;;;;;144.50;54.78;;;8.60;99.90;;;;;;5097086;28;20028;-67
2023/04/16 01:32:33;;;;;;;150.10;54.88;;;8.60;99.90;;;;;;5097371;28;20032;-67
2023/04/16 01:34:59;;;;;;;153.63;56.35;;;8.60;99.90;;;;;;5097178;28;20036;-67
2023/04/16 01:37:25;;;;;;;149.27;56.00;;;8.60;99.90;;;;;;5097331;28;20059;-67
2023/04/16 01:39:51;;;;;;;151.93;55.17;;;8.60;99.90;;;;;;5097199;28;20458;-67
2023/04/16 01:42:16;;;;;;;153.07;55.45;;;8.60;99.90;;;;;;5096536;28;20016;-67
2023/04/16 01:44:42;;;;;;;152.32;55.03;;;8.60;99.90;;;;;;5096865;28;20024;-67
2023/04/16 01:47:07;;;;;;;149.25;56.72;;;8.60;99.90;;;;;;5096424;28;20024;-67
2023/04/16 01:49:33;;;;;;;169.90;57.03;;;8.60;99.90;;;;;;5096787;28;20036;-67
2023/04/16 01:51:59;;;;;;;158.88;57.95;;;8.60;99.90;;;;;;5096950;28;20032;-67
2023/04/16 01:54:24;;;;;;;158.73;57.45;;;8.60;99.90;;;;;;5096683;28;20034;-68
2023/04/16 01:56:50;;;;;;;164.38;57.10;;;8.60;99.90;;;;;;5096089;28;20063;-68
2023/04/16 01:59:15;;;;;;;154.23;56.53;;;8.60;99.90;;;;;;5096430;28;20020;-68
2023/04/16 02:01:42;;;;;;;156.60;57.80;;;8.60;99.90;;;;;;5096773;28;20055;-68
2023/04/16 02:04:07;;;;;;;154.90;57.95;;;8.60;99.90;;;;;;5096431;28;20119;-68
2023/04/16 02:06:33;;;;;;;168.15;58.10;;;8.60;99.90;;;;;;5096671;28;20089;-67
2023/04/16 02:08:58;;;;;;;168.10;58.10;;;8.60;99.90;;;;;;5096501;28;20481;-67
2023/04/16 02:11:25;;;;;;;163.10;59.35;;;8.60;99.90;;;;;;5096273;28;20065;-67
2023/04/16 02:13:50;;;;;;;164.30;60.60;;;8.60;99.90;;;;;;5096258;28;20473;-67
2023/04/16 02:16:16;;;;;;;163.52;61.15;;;8.60;99.90;;;;;;5095414;28;20044;-67
2023/04/16 02:18:41;;;;;;;163.88;59.75;;;8.60;99.90;;;;;;5096172;28;20035;-67
2023/04/16 02:21:07;;;;;;;155.93;59.80;;;8.60;99.90;;;;;;5096030;28;20028;-67
2023/04/16 02:23:32;;;;;;;162.73;60.00;;;8.60;99.90;;;;;;5095636;28;20047;-67
2023/04/16 02:25:58;;;;;;;154.27;59.38;;;8.60;99.90;;;;;;5095415;28;20024;-67
2023/04/16 02:28:24;;;;;;;156.30;60.00;;;8.60;99.90;;;;;;5095708;28;20116;-67
2023/04/16 02:30:49;;;;;;;166.52;62.70;;;8.60;99.90;;;;;;5095983;28;20028;-67
2023/04/16 02:33:15;;;;;;;156.27;60.15;;;8.60;99.90;;;;;;5095289;28;20486;-67
2023/04/16 02:35:40;;;;;;;154.00;59.15;;;8.60;99.90;;;;;;5095568;28;20020;-67
2023/04/16 02:38:07;;;;;;;157.95;63.30;;;8.60;99.90;;;;;;5095378;28;20075;-67
2023/04/16 02:40:32;;;;;;;155.35;59.78;;;8.60;99.90;;;;;;5095115;28;20025;-67
2023/04/16 02:42:58;;;;;;;159.20;61.13;;;8.60;99.90;;;;;;5095916;28;20036;-67
2023/04/16 02:45:23;;;;;;;150.45;60.13;;;8.60;99.90;;;;;;5095454;28;20028;-67
2023/04/16 02:47:49;;;;;;;151.77;58.83;;;8.60;99.90;;;;;;5094877;28;20039;-67
2023/04/16 02:50:15;;;;;;;146.40;59.60;;;8.60;99.90;;;;;;5095272;28;20024;-67
2023/04/16 02:52:41;;;;;;;144.55;57.42;;;8.60;99.90;;;;;;5095227;28;20548;-67
2023/04/16 02:55:07;;;;;;;148.40;58.88;;;8.60;99.90;;;;;;5095696;28;20032;-67
2023/04/16 02:57:33;;;;;;;138.48;59.95;;;8.70;99.90;;;;;;5095446;28;20347;-67
2023/04/16 02:59:58;;;;;;;143.23;58.15;;;8.70;99.90;;;;;;5094847;28;20066;-67
2023/04/16 03:02:24;;;;;;;145.07;58.60;;;8.70;99.90;;;;;;5094687;28;20404;-67
2023/04/16 03:04:49;;;;;;;139.57;59.63;;;8.70;99.90;;;;;;5094747;28;20027;-67
2023/04/16 03:07:17;;;;;;;133.15;60.33;;;8.70;99.90;;;;;;5095183;28;20028;-67
2023/04/16 03:09:43;;;;;;;138.40;60.38;;;8.70;99.90;;;;;;5094124;28;20059;-67
2023/04/16 03:12:09;;;;;;;137.25;61.70;;;8.70;99.90;;;;;;5094920;28;20351;-67
2023/04/16 03:14:35;;;;;;;140.52;60.25;;;8.70;99.90;;;;;;5094601;28;20077;-69
2023/04/16 03:17:00;;;;;;;138.80;60.17;;;8.70;99.90;;;;;;5094520;28;20043;-67
2023/04/16 03:19:26;;;;;;;138.32;59.95;;;8.70;99.90;;;;;;5094924;28;20035;-67
2023/04/16 03:21:51;;;;;;;136.65;60.38;;;8.70;99.90;;;;;;5095134;28;20016;-68
2023/04/16 03:24:17;;;;;;;137.85;59.70;;;8.70;99.90;;;;;;5094246;28;20028;-67
2023/04/16 03:26:42;;;;;;;140.90;60.22;;;8.70;99.90;;;;;;5094439;28;20023;-67
2023/04/16 03:29:08;;;;;;;133.35;59.80;;;8.70;99.90;;;;;;5094905;28;20024;-67
2023/04/16 03:31:33;;;;;;;144.00;59.15;;;8.70;99.90;;;;;;5095005;28;20070;-67
2023/04/16 03:33:59;;;;;;;137.45;61.17;;;8.70;99.90;;;;;;5094379;28;20032;-67
2023/04/16 03:36:26;;;;;;;135.85;59.55;;;8.70;99.90;;;;;;5093895;28;20085;-67
2023/04/16 03:38:51;;;;;;;142.05;60.83;;;8.70;99.90;;;;;;5094786;28;20490;-67
2023/04/16 03:41:17;;;;;;;145.10;60.70;;;8.70;99.90;;;;;;5094717;28;20020;-67
2023/04/16 03:43:43;;;;;;;142.90;60.38;;;8.70;99.90;;;;;;5094343;28;20035;-67
2023/04/16 03:46:08;;;;;;;136.30;60.28;;;8.70;99.90;;;;;;5093892;28;20032;-67
2023/04/16 03:48:35;;;;;;;126.55;58.75;;;8.80;99.90;;;;;;5094225;28;20111;-67
2023/04/16 03:51:01;;;;;;;141.68;62.05;;;8.80;99.90;;;;;;5093894;28;20031;-67
2023/04/16 03:53:26;;;;;;;133.85;59.45;;;8.80;99.90;;;;;;5094266;28;20478;-67
2023/04/16 03:55:52;;;;;;;135.35;60.25;;;8.80;99.90;;;;;;5093889;28;20020;-67
2023/04/16 03:58:18;;;;;;;134.15;60.15;;;8.70;99.90;;;;;;5094288;28;20039;-67
2023/04/16 04:00:44;;;;;;;128.23;60.88;;;8.70;99.90;;;;;;5094351;28;20382;-67
2023/04/16 04:03:10;;;;;;;135.30;61.53;;;8.80;99.90;;;;;;5094259;28;20036;-67
2023/04/16 04:05:36;;;;;;;142.30;60.72;;;8.80;99.90;;;;;;5094021;28;20024;-67
2023/04/16 04:08:02;;;;;;;148.65;62.28;;;8.70;99.90;;;;;;5093690;28;20024;-67
2023/04/16 04:10:30;;;;;;;134.82;60.33;;;8.80;99.90;;;;;;5093979;28;20389;-67
2023/04/16 04:12:56;;;;;;;131.02;60.58;;;8.80;99.90;;;;;;5094268;28;20024;-67
2023/04/16 04:15:21;;;;;;;130.82;61.42;;;8.80;99.90;;;;;;5093333;28;20048;-67
2023/04/16 04:17:47;;;;;;;128.82;59.83;;;8.80;99.90;;;;;;5094109;28;20091;-67
2023/04/16 04:20:12;;;;;;;136.15;62.58;;;8.80;99.90;;;;;;5094255;28;20063;-67
2023/04/16 04:22:38;;;;;;;125.20;60.28;;;8.80;99.90;;;;;;5073395;28;20024;-67
2023/04/16 04:25:03;;;;;;;128.73;60.08;;;8.80;99.90;;;;;;5073665;28;20025;-67
2023/04/16 04:27:29;;;;;;;126.25;59.88;;;8.80;99.90;;;;;;5073552;28;20025;-67
2023/04/16 04:29:55;;;;;;;131.18;61.70;;;8.80;99.90;;;;;;5073090;28;20028;-67
2023/04/16 04:32:21;;;;;;;131.32;60.25;;;8.80;99.90;;;;;;5073428;28;20058;-67
2023/04/16 04:34:46;;;;;;;123.10;59.85;;;8.80;99.90;;;;;;5074037;28;20020;-67
2023/04/16 04:37:12;;;;;;;125.60;59.80;;;8.80;99.90;;;;;;5073680;28;20108;-67
2023/04/16 04:39:37;;;;;;;112.00;58.47;;;8.80;99.90;;;;;;5072721;28;20028;-67
2023/04/16 04:42:03;;;;;;;119.63;59.83;;;8.80;99.90;;;;;;5073545;28;20021;-67
2023/04/16 04:44:28;;;;;;;115.60;58.40;;;8.80;99.90;;;;;;5073642;28;20028;-67
2023/04/16 04:46:54;;;;;;;111.10;57.25;;;8.80;99.90;;;;;;5073905;28;20042;-67
2023/04/16 04:49:19;;;;;;;110.03;56.85;;;8.80;99.90;;;;;;5073776;28;20028;-67
2023/04/16 04:51:45;;;;;;;112.32;57.95;;;8.80;99.90;;;;;;5073351;28;20355;-66
2023/04/16 04:54:10;;;;;;;101.47;55.90;;;8.80;99.90;;;;;;5073587;28;20025;-66
2023/04/16 04:56:36;;;;;;;102.75;56.80;;;8.80;99.90;;;;;;5072994;28;20025;-66
2023/04/16 04:59:01;;;;;;;106.95;57.25;;;8.80;99.90;;;;;;5075728;28;20066;-66
2023/04/16 05:01:27;;;;;;;107.72;56.20;;;8.70;99.90;;;;;;5077148;28;20117;-66
2023/04/16 05:03:52;;;;;;;111.97;58.90;;;8.80;99.90;;;;;;5077018;28;20027;-66
2023/04/16 05:06:18;;;;;;;113.35;57.35;;;8.80;99.90;;;;;;5077262;28;20040;-66
2023/04/16 05:08:43;;;;;;;107.28;56.30;;;8.80;99.90;;;;;;5076756;28;20043;-66
2023/04/16 05:11:09;;;;;;;111.22;57.17;;;8.80;99.90;;;;;;5077215;28;20028;-66
2023/04/16 05:13:35;;;;;;;103.00;57.53;;;8.80;99.90;;;;;;5077223;28;20032;-66
2023/04/16 05:16:00;;;;;;;107.05;55.28;;;8.80;99.90;;;;;;5076337;28;20090;-67
2023/04/16 05:18:26;;;;;;;102.13;55.45;;;8.80;99.90;;;;;;5077115;28;20017;-66
2023/04/16 05:20:52;;;;;;;101.93;56.25;;;8.80;99.90;;;;;;5077115;28;20025;-67
2023/04/16 05:23:17;;;;;;;100.50;54.33;;;8.80;99.90;;;;;;5076912;28;20032;-66
2023/04/16 05:25:43;;;;;;;101.28;53.92;;;8.80;99.90;;;;;;5076716;28;20401;-66
2023/04/16 05:28:09;;;;;;;90.53;49.75;;;8.80;99.90;;;;;;5076820;28;20066;-66
2023/04/16 05:30:34;;;;;;;91.40;50.35;;;8.80;99.90;;;;;;5076651;28;20063;-66
2023/04/16 05:33:00;;;;;;;85.10;47.85;;;8.80;99.90;;;;;;5076824;28;20087;-67
2023/04/16 05:35:26;;;;;;;84.13;45.78;;;8.80;99.90;;;;;;5076386;28;20486;-66
2023/04/16 05:37:52;;;;;;;87.85;47.28;;;8.80;99.90;;;;;;5076784;28;20485;-66
2023/04/16 05:40:17;;;;;;;78.60;46.17;;;8.70;99.90;;;;;;5076920;28;20028;-66
2023/04/16 05:42:43;;;;;;;81.90;47.08;;;8.70;99.90;;;;;;5076149;28;20036;-66
2023/04/16 05:45:09;;;;;;;80.05;45.30;;;8.80;99.90;;;;;;5076433;28;20035;-66
2023/04/16 05:47:35;;;;;;;76.47;44.95;;;8.80;99.90;;;;;;5076281;28;20021;-66
2023/04/16 05:50:00;;;;;;;86.20;46.28;;;8.80;99.90;;;;;;5076199;28;20028;-66
2023/04/16 05:52:26;;;;;;;80.60;45.13;;;8.80;99.90;;;;;;5076469;28;20086;-66
2023/04/16 05:54:51;;;;;;;78.47;46.60;;;8.90;99.90;;;;;;5076636;28;20039;-67
2023/04/16 05:57:17;;;;;;;77.80;45.38;;;8.90;99.90;;;;;;5076351;28;20165;-66
2023/04/16 05:59:42;;;;;;;81.43;47.75;;;8.80;99.90;;;;;;5076375;28;20020;-66
2023/04/16 06:02:08;;;;;;;80.15;46.33;;;8.80;99.90;;;;;;5076415;28;20029;-66
2023/04/16 06:04:34;;;;;;;74.32;43.50;;;8.80;99.90;;;;;;5076221;28;20076;-66
2023/04/16 06:07:00;;;;;;;82.07;45.25;;;8.80;99.90;;;;;;5075937;28;20059;-66
2023/04/16 06:09:26;;;;;;;77.72;46.00;;;8.80;99.90;;;;;;5075285;28;20052;-66
2023/04/16 06:11:51;;;;;;;82.90;46.78;;;8.80;99.90;;;;;;5076245;28;20032;-66
2023/04/16 06:14:17;;;;;;;76.70;44.80;;;8.80;99.90;;;;;;5076130;28;20032;-66
2023/04/16 06:16:42;;;;;;;76.20;44.92;;;8.80;99.90;;;;;;5075087;28;20044;-66
2023/04/16 06:19:08;;;;;;;82.35;45.72;;;8.80;99.90;;;;;;5075671;28;20524;-66
2023/04/16 06:21:34;;;;;;;83.95;48.97;;;8.80;99.90;;;;;;5075971;28;20516;-66
2023/04/16 06:24:00;;;;;;;85.28;47.97;;;8.80;99.90;;;;;;5076009;28;20028;-66
2023/04/16 06:26:25;;;;;;;85.38;49.30;;;8.70;99.90;;;;;;5075796;28;20107;-66
2023/04/16 06:28:51;;;;;;;85.88;49.35;;;8.80;99.90;;;;;;5075220;28;20024;-66
2023/04/16 06:31:16;;;;;;;90.68;49.75;;;8.70;99.90;;;;;;5075377;28;20043;-66
2023/04/16 06:33:42;;;;;;;89.63;49.25;;;8.70;99.90;;;;;;5075871;28;20032;-66
2023/04/16 06:36:07;;;;;;;95.78;51.35;;;8.70;99.90;;;;;;5075075;28;20040;-66
2023/04/16 06:38:33;;;;;;;93.50;50.90;;;8.70;99.90;;;;;;5075752;28;20431;-66
2023/04/16 06:40:58;;;;;;;92.90;49.47;;;8.80;99.90;;;;;;5075684;28;20032;-66
2023/04/16 06:43:24;;;;;;;92.15;52.22;;;8.80;99.90;;;;;;5075702;28;20146;-66
2023/04/16 06:45:50;;;;;;;91.93;51.17;;;8.80;99.90;;;;;;5074552;28;20029;-66
2023/04/16 06:48:15;;;;;;;96.00;51.95;;;8.80;99.90;;;;;;5075074;28;20036;-66
2023/04/16 06:50:41;;;;;;;88.97;51.45;;;8.90;99.90;;;;;;5074617;28;20474;-66
2023/04/16 06:53:06;;;;;;;89.28;50.97;;;8.90;99.90;;;;;;5075481;28;20063;-66
2023/04/16 06:55:32;;;;;;;90.53;51.30;;;8.90;99.90;;;;;;5075195;28;20032;-66
2023/04/16 06:57:57;;;;;;;92.82;52.70;;;8.90;99.90;;;;;;5075404;28;20078;-67
2023/04/16 07:00:23;;;;;;;92.22;51.00;;;8.90;99.90;;;;;;5074879;28;20553;-66
2023/04/16 07:02:48;;;;;;;94.22;51.92;;;8.90;99.90;;;;;;5074455;28;20048;-66
2023/04/16 07:05:14;;;;;;;91.20;51.67;;;8.90;99.90;;;;;;5075306;28;20112;-67
2023/04/16 07:07:39;;;;;;;95.82;53.30;;;8.90;99.90;;;;;;5074852;28;20147;-66
2023/04/16 07:10:05;;;;;;;92.28;52.28;;;8.90;99.90;;;;;;5074751;28;20490;-66
2023/04/16 07:12:32;;;;;;;97.18;52.95;;;8.90;99.90;;;;;;5075152;28;20115;-66
2023/04/16 07:14:57;;;;;;;95.68;52.33;;;9.00;99.90;;;;;;5074561;28;20055;-66
2023/04/16 07:17:23;;;;;;;98.45;53.80;;;9.00;99.90;;;;;;5074118;28;20493;-66
2023/04/16 07:19:49;;;;;;;93.40;54.13;;;9.00;99.90;;;;;;5074210;28;20035;-66
2023/04/16 07:22:14;;;;;;;90.10;52.95;;;9.10;99.90;;;;;;5074397;28;20367;-66
2023/04/16 07:24:40;;;;;;;102.85;54.95;;;9.00;99.90;;;;;;5074448;28;20475;-66
2023/04/16 07:27:05;;;;;;;97.57;51.97;;;9.10;99.90;;;;;;5074813;28;20033;-66
2023/04/16 07:29:31;;;;;;;95.30;52.03;;;9.00;99.90;;;;;;5074360;28;20024;-66
2023/04/16 07:31:57;;;;;;;92.57;53.03;;;9.00;99.90;;;;;;5074406;28;20051;-66
2023/04/16 07:34:22;;;;;;;90.15;53.00;;;9.00;99.90;;;;;;5074227;28;20122;-66
2023/04/16 07:36:48;;;;;;;92.00;53.65;;;9.00;99.90;;;;;;5073893;28;20031;-66
2023/04/16 07:39:13;;;;;;;93.35;54.28;;;9.10;99.90;;;;;;5074467;28;20029;-66
2023/04/16 07:41:40;;;;;;;92.65;53.20;;;9.20;99.90;;;;;;5073958;28;20028;-66
2023/04/16 07:44:05;;;;;;;84.63;51.10;;;9.20;99.90;;;;;;5073953;28;20116;-66
2023/04/16 07:46:31;;;;;;;91.88;53.30;;;9.30;99.90;;;;;;5074442;28;20454;-67
2023/04/16 07:48:56;;;;;;;91.28;51.35;;;9.20;99.90;;;;;;5074333;28;20029;-66
2023/04/16 07:51:22;;;;;;;91.75;51.88;;;9.30;99.90;;;;;;5073766;28;20035;-66
2023/04/16 07:53:48;;;;;;;92.60;52.28;;;9.30;99.90;;;;;;5073879;28;20090;-66
2023/04/16 07:56:13;;;;;;;87.43;51.88;;;9.20;99.90;;;;;;5074142;28;20078;-66
2023/04/16 07:58:39;;;;;;;82.78;49.22;;;9.20;99.90;;;;;;5074347;28;20028;-66
2023/04/16 08:01:04;;;;;;;84.60;48.70;;;9.30;99.90;;;;;;5073917;28;20027;-66
2023/04/16 08:03:30;;;;;;;88.50;52.95;;;9.30;99.90;;;;;;5073855;28;20031;-66
2023/04/16 08:05:55;;;;;;;87.20;52.08;;;9.30;99.90;;;;;;5073904;28;20059;-66
2023/04/16 08:08:21;;;;;;;85.85;51.55;;;9.30;99.90;;;;;;5074108;28;20389;-67
2023/04/16 08:10:47;;;;;;;92.07;50.78;;;9.30;99.90;;;;;;5074096;28;20035;-66
2023/04/16 08:13:12;;;;;;;85.60;51.83;;;9.40;99.90;;;;;;5073705;28;20039;-66
2023/04/16 08:15:38;;;;;;;85.95;50.70;;;9.40;99.90;;;;;;5073290;28;20589;-66
2023/04/16 08:18:04;;;;;;;87.22;50.60;;;9.40;99.90;;;;;;5073473;28;20466;-66
2023/04/16 08:20:30;;;;;;;85.20;49.55;;;9.40;99.90;;;;;;5073669;28;20024;-66
2023/04/16 08:22:55;;;;;;;88.70;51.22;;;9.50;99.90;;;;;;5073795;28;20028;-66
2023/04/16 08:25:23;;;;;;;82.65;49.63;;;9.60;99.90;;;;;;5073002;28;20376;-67
2023/04/16 08:27:49;;;;;;;80.13;48.97;;;9.70;99.90;;;;;;5074216;28;20063;-67
2023/04/16 08:30:15;;;;;;;83.22;50.17;;;9.70;99.90;;;;;;5073562;28;20367;-67
2023/04/16 08:32:41;;;;;;;79.80;47.17;;;9.80;99.90;;;;;;5076268;28;20119;-67
2023/04/16 08:35:08;;;;;;;79.97;47.70;;;9.90;99.90;;;;;;5077346;28;20036;-67
2023/04/16 08:37:33;;;;;;;67.50;43.47;;;10.10;99.90;;;;;;5077779;28;20111;-68
2023/04/16 08:39:59;;;;;;;68.07;43.28;;;10.20;99.90;;;;;;5077486;28;20124;-67
2023/04/16 08:42:32;;;;;;;73.75;43.55;;;10.30;99.90;;;;;;5077942;28;20528;-67
2023/04/16 08:45:07;;;;;;;67.93;44.03;;;10.40;99.90;;;;;;5077485;28;20477;-67
2023/04/16 08:47:35;;;;;;;64.20;42.17;;;10.50;99.90;;;;;;5077494;28;20081;-67
2023/04/16 08:50:03;;;;;;;70.65;43.13;;;10.70;99.90;;;;;;5077707;28;20032;-67
2023/04/16 08:52:30;;;;;;;63.80;41.08;;;10.80;99.90;;;;;;5077708;28;20070;-67
2023/04/16 08:55:13;;;;;;;64.43;42.85;;;10.70;99.90;;;;;;5077337;28;20029;-67
2023/04/16 08:57:46;;;;;;;63.33;40.67;;;10.90;99.90;;;;;;5077375;28;20024;-67
2023/04/16 09:00:12;;;;;;;61.05;39.90;;;11.00;99.30;;;;;;5077781;28;20490;-67
2023/04/16 09:02:38;;;;;;;60.30;39.17;;;11.10;99.90;;;;;;5076934;28;20067;-67
2023/04/16 09:05:06;;;;;;;58.38;39.65;;;10.90;85.70;;;;;;5077539;28;20416;-67
2023/04/16 09:07:33;;;;;;;61.00;39.72;;;10.80;94.40;;;;;;5077497;28;20024;-67
2023/04/16 09:09:59;;;;;;;64.35;41.25;;;10.70;99.90;;;;;;5076944;28;20032;-67
2023/04/16 09:12:25;;;;;;;61.35;40.83;;;10.60;99.90;;;;;;5076951;28;20078;-67
2023/04/16 09:14:51;;;;;;;60.50;41.38;;;10.60;99.90;;;;;;5076836;28;20033;-67
2023/04/16 09:17:18;;;;;;;58.70;40.83;;;10.60;99.90;;;;;;5076483;28;20043;-67
2023/04/16 09:19:44;;;;;;;67.07;44.30;;;10.60;99.90;;;;;;5077393;28;20078;-67
2023/04/16 09:22:11;;;;;;;63.53;42.70;;;10.80;99.90;;;;;;5077026;28;20116;-67
2023/04/16 09:24:37;;;;;;;62.90;41.13;;;10.90;99.90;;;;;;5076274;28;20135;-67
2023/04/16 09:27:03;;;;;;;61.28;41.55;;;11.10;99.90;;;;;;5076975;28;20060;-67
2023/04/16 09:29:36;;;;;;;61.88;40.72;;;11.30;99.90;;;;;;5076952;28;20494;-67
2023/04/16 09:32:04;;;;;;;55.92;37.88;;;11.50;97.00;;;;;;5075996;28;20025;-67
2023/04/16 09:34:32;;;;;;;60.47;38.95;;;11.50;81.30;;;;;;5076587;28;20031;-67
2023/04/16 09:37:14;;;;;;;55.38;38.53;;;11.60;73.00;;;;;;5076818;28;20039;-67
2023/04/16 09:39:42;;;;;;;55.22;36.28;;;11.80;79.10;;;;;;5076820;28;20024;-67
2023/04/16 09:42:08;;;;;;;58.40;38.75;;;12.10;38.40;;;;;;5076628;28;20046;-67
2023/04/16 09:44:38;;;;;;;54.15;38.72;;;12.20;40.40;;;;;;5075284;28;20530;-67
2023/04/16 09:47:06;;;;;;;58.47;37.83;;;12.40;39.40;;;;;;5076445;28;20078;-66
2023/04/16 09:49:35;;;;;;;53.45;37.60;;;12.60;27.30;;;;;;5076602;28;20509;-67
2023/04/16 09:52:01;;;;;;;49.58;35.55;;;12.90;12.30;;;;;;5076095;28;20469;-67
2023/04/16 09:54:27;;;;;;;50.25;36.17;;;13.00;1.00;;;;;;5076563;28;20032;-67
2023/04/16 09:56:56;;;;;;;54.70;37.80;;;12.80;12.90;;;;;;5075760;28;20493;-67
2023/04/16 09:59:23;;;;;;;53.53;36.90;;;13.00;4.40;;;;;;5076338;28;20108;-67
2023/04/16 10:01:49;;;;;;;49.28;34.95;;;13.00;1.00;;;;;;5075879;28;20533;-67
2023/04/16 10:04:15;;;;;;;50.78;35.20;;;13.30;1.00;;;;;;5076576;28;20108;-67
2023/04/16 10:06:41;;;;;;;46.90;33.75;;;13.60;1.00;;;;;;5076247;28;20082;-67
2023/04/16 10:09:08;;;;;;;48.28;33.75;;;13.60;1.00;;;;;;5076398;28;20040;-67
2023/04/16 10:11:34;;;;;;;42.28;31.92;;;13.80;1.00;;;;;;5075751;28;20515;-67
2023/04/16 10:14:00;;;;;;;45.28;34.13;;;13.70;1.00;;;;;;5076322;28;20024;-67
2023/04/16 10:16:26;;;;;;;47.97;33.65;;;13.50;1.00;;;;;;5075065;28;20094;-67
2023/04/16 10:18:53;;;;;;;53.00;34.70;;;13.10;1.00;;;;;;5075796;28;20484;-67
2023/04/16 10:21:18;;;;;;;50.50;35.35;;;12.60;3.60;;;;;;5075470;28;20055;-68
2023/04/16 10:23:45;;;;;;;49.65;35.53;;;12.60;25.00;;;;;;5076064;28;20466;-67
2023/04/16 10:26:10;;;;;;;48.80;35.55;;;12.60;31.80;;;;;;5075797;28;20081;-67
2023/04/16 10:28:36;;;;;;;48.60;33.22;;;12.80;10.30;;;;;;5075338;28;20474;-67
2023/04/16 10:31:04;;;;;;;46.08;32.50;;;12.90;1.00;;;;;;5075912;28;20056;-67
2023/04/16 10:33:33;;;;;;;44.83;32.00;;;13.10;1.00;;;;;;5075196;28;20036;-67
2023/04/16 10:36:09;;;;;;;41.60;29.60;;;13.30;1.00;;;;;;5075218;28;20482;-67
2023/04/16 10:38:38;;;;;;;39.63;29.15;;;12.70;1.00;;;;;;5075828;28;20378;-67
2023/04/16 10:41:05;;;;;;;41.40;30.17;;;12.30;1.00;;;;;;5075810;28;20463;-67
2023/04/16 10:43:39;;;;;;;45.10;31.38;;;12.20;1.00;;;;;;5075501;28;20035;-67
2023/04/16 10:46:25;;;;;;;46.13;32.67;;;12.20;3.30;;;;;;5074970;28;20367;-67
2023/04/16 10:48:53;;;;;;;44.67;32.65;;;12.40;19.10;;;;;;5074759;28;20033;-67
2023/04/16 10:51:30;;;;;;;43.50;30.65;;;12.50;1.00;;;;;;5075426;28;20531;-67
2023/04/16 10:54:04;;;;;;;45.40;32.65;;;12.60;1.00;;;;;;5075578;28;20131;-67
2023/04/16 10:56:32;;;;;;;43.92;31.25;;;12.80;1.00;;;;;;5073953;28;20029;-67
2023/04/16 10:58:57;;;;;;;43.15;31.38;;;12.70;1.00;;;;;;5074763;28;20428;-67
2023/04/16 11:01:30;;;;;;;42.45;30.80;;;12.60;1.00;;;;;;5074826;28;20034;-67
2023/04/16 11:03:59;;;;;;;44.85;32.88;;;12.40;1.00;;;;;;5075020;28;20059;-67
2023/04/16 11:06:26;;;;;;;41.63;31.52;;;12.30;1.00;;;;;;5074554;28;20056;-67
2023/04/16 11:08:52;;;;;;;43.45;32.42;;;12.40;1.00;;;;;;5075273;28;20032;-67
2023/04/16 11:11:18;;;;;;;42.50;31.70;;;12.60;1.00;;;;;;5075167;28;20558;-67
2023/04/16 11:13:45;;;;;;;39.42;30.02;;;12.90;1.00;;;;;;5074428;28;20054;-66
2023/04/16 11:16:15;;;;;;;41.83;30.52;;;13.20;1.00;;;;;;5073961;28;20084;-67
2023/04/16 11:18:41;;;;;;;40.88;29.58;;;13.30;1.00;;;;;;5074825;28;20024;-67
2023/04/16 11:21:08;;;;;;;39.83;30.20;;;13.00;1.00;;;;;;5075048;28;20021;-67
2023/04/16 11:23:50;;;;;;;43.22;31.17;;;12.80;1.00;;;;;;5074448;28;20021;-67
2023/04/16 11:26:22;;;;;;;43.55;30.25;;;12.70;1.00;;;;;;5074850;28;20441;-67
2023/04/16 11:28:47;;;;;;;43.88;30.30;;;12.50;1.00;;;;;;5074950;28;20344;-67
2023/04/16 11:31:13;;;;;;;40.95;28.65;;;12.50;1.00;;;;;;5074407;28;20077;-67
2023/04/16 11:33:38;;;;;;;39.50;28.98;;;12.30;1.00;;;;;;5074085;28;20452;-67
2023/04/16 11:36:04;;;;;;;40.60;30.02;;;12.50;1.00;;;;;;5074286;28;20036;-67
2023/04/16 11:38:35;;;;;;;37.15;28.48;;;13.00;1.00;;;;;;5074123;28;20021;-67
2023/04/16 11:41:01;;;;;;;41.70;28.55;;;13.20;1.00;;;;;;5074412;28;20021;-67
2023/04/16 11:43:27;;;;;;;34.60;27.38;;;13.50;1.00;;;;;;5074139;28;20032;-67
2023/04/16 11:45:57;;;;;;;36.78;27.20;;;13.40;1.00;;;;;;5074072;28;20099;-68
2023/04/16 11:48:22;;;;;;;38.08;26.08;;;13.70;1.00;;;;;;5074314;28;20028;-67
2023/04/16 11:50:56;;;;;;;36.65;25.92;;;13.50;1.00;;;;;;5074598;28;20051;-67
2023/04/16 11:53:22;;;;;;;35.53;25.25;;;13.40;1.00;;;;;;5074299;28;20028;-67
2023/04/16 11:55:48;;;;;;;34.38;24.85;;;13.40;1.00;;;;;;5073985;28;20032;-67
2023/04/16 11:58:15;;;;;;;32.20;24.75;;;13.70;1.00;;;;;;5074368;28;20108;-67
2023/04/16 12:00:41;;;;;;;32.60;23.17;;;13.80;1.00;;;;;;5074451;28;20024;-67
2023/04/16 12:03:07;;;;;;;32.83;23.25;;;13.30;1.00;;;;;;5073862;28;20024;-67
2023/04/16 12:05:37;;;;;;;33.53;23.25;;;13.40;1.00;;;;;;5074311;28;20032;-67
2023/04/16 12:08:07;;;;;;;31.98;23.35;;;13.40;1.00;;;;;;5073732;28;20036;-67
2023/04/16 12:10:36;;;;;;;35.08;23.52;;;13.40;1.00;;;;;;5074243;28;20032;-67
2023/04/16 12:13:13;;;;;;;34.30;24.63;;;13.50;1.00;;;;;;5074306;28;20409;-67
2023/04/16 12:15:47;;;;;;;29.65;22.73;;;14.10;1.00;;;;;;5073467;28;20464;-67
2023/04/16 12:18:15;;;;;;;32.75;24.15;;;14.00;1.00;;;;;;5073307;28;20048;-67
2023/04/16 12:20:42;;;;;;;31.20;23.17;;;13.60;1.00;;;;;;5073968;28;20035;-67
2023/04/16 12:23:08;;;;;;;32.78;24.58;;;13.60;1.00;;;;;;5073368;28;20021;-67
2023/04/16 12:25:34;;;;;;;33.17;23.73;;;13.70;1.00;;;;;;5074126;28;20078;-67